Elton, Wisconsin
Current Conditions -  °F | °C
As of 3:15 AM on Wednesday 28 Jan 2015 (Local Time) from KAIG Reporting Station
Overcast Overcast  
Wind Chill: 13°   Ceiling: 800
Heat Index: 21°   Visibility: 10mi
Dew Point: 18°   Wind: 6mph
Humidity: 90%   Direction: 180°S
Pressure: 30.15"   Gusts: NA
Location:  45.17°N, 88.89°W
Report Text: KAIG 280915Z AUTO 18005KT 10SM OVC008 M06/M08 A3015 RMK AO2 T10621076
Loading
Personal Weather Stations






























Interactive Weather Map New forecast layout! Learn more

10-Day Weather Forecast

Advertisements
Track Severe Weather on mobile